Time;durP1;ratioP1;P1;durP2;ratioP2;P2;SDS_P1;SDS_P2;PMS_P1;PMS_P2;Temp;Humidity;BMP_temperature;BMP_pressure;BME280_temperature;BME280_humidity;BME280_pressure;Samples;Min_cycle;Max_cycle;Signal;HPM_P1;HPM_P2
2023/12/29 00:01:42;;;;;;;8.00;2.33;;;;;;;10.92;69.53;100727.50;5091069;28;20475;-66
2023/12/29 00:04:08;;;;;;;6.57;2.17;;;;;;;10.92;69.49;100736.69;5089916;28;20107;-66
2023/12/29 00:06:33;;;;;;;8.98;2.33;;;;;;;10.96;69.52;100734.22;5103367;28;20082;-66
2023/12/29 00:09:00;;;;;;;7.97;2.80;;;;;;;10.96;69.53;100737.00;5086162;28;20127;-67
2023/12/29 00:11:25;;;;;;;10.88;2.67;;;;;;;10.96;69.19;100728.69;5075836;28;20438;-67
2023/12/29 00:13:50;;;;;;;8.43;2.00;;;;;;;10.97;69.39;100713.72;5084893;28;20036;-66
2023/12/29 00:16:16;;;;;;;10.13;2.10;;;;;;;10.99;69.37;100731.78;5085794;28;20035;-65
2023/12/29 00:18:41;;;;;;;11.13;2.70;;;;;;;10.97;69.61;100730.38;5085343;28;20028;-65
2023/12/29 00:21:07;;;;;;;10.30;2.17;;;;;;;10.98;69.51;100720.94;5090401;28;20035;-65
2023/12/29 00:23:32;;;;;;;6.95;2.08;;;;;;;10.97;69.57;100747.03;5089320;28;20032;-66
2023/12/29 00:25:57;;;;;;;10.27;2.40;;;;;;;10.93;69.56;100712.56;5088166;28;20529;-65
2023/12/29 00:28:23;;;;;;;9.13;2.50;;;;;;;10.93;69.89;100730.06;5088152;28;20032;-65
2023/12/29 00:30:48;;;;;;;11.02;3.15;;;;;;;10.91;69.78;100726.69;5089299;28;20039;-66
2023/12/29 00:33:14;;;;;;;9.45;2.65;;;;;;;10.93;70.06;100701.44;5089890;28;20032;-65
2023/12/29 00:35:39;;;;;;;10.82;2.70;;;;;;;10.95;69.71;100727.84;5090688;28;20070;-65
2023/12/29 00:38:06;;;;;;;8.15;2.38;;;;;;;10.96;69.81;100714.78;5090099;28;20471;-65
2023/12/29 00:40:31;;;;;;;6.68;1.95;;;;;;;10.97;69.97;100713.72;5085241;28;20033;-65
2023/12/29 00:42:57;;;;;;;8.77;2.30;;;;;;;10.95;69.77;100708.41;5091260;28;20035;-65
2023/12/29 00:45:22;;;;;;;11.85;2.58;;;;;;;10.98;69.80;100701.50;5080780;28;20442;-66
2023/12/29 00:47:48;;;;;;;11.65;3.22;;;;;;;11.00;70.26;100713.19;5090335;28;20035;-66
2023/12/29 00:50:14;;;;;;;10.02;2.38;;;;;;;10.97;70.74;100703.44;5090913;28;20379;-66
2023/12/29 00:52:39;;;;;;;13.48;2.40;;;;;;;10.95;70.85;100705.63;5090411;28;20032;-65
2023/12/29 00:55:05;;;;;;;9.35;2.08;;;;;;;10.95;70.72;100694.50;5081279;28;20502;-66
2023/12/29 00:57:30;;;;;;;6.88;2.38;;;;;;;10.93;71.63;100705.06;5087542;28;20778;-65
2023/12/29 00:59:55;;;;;;;8.68;2.38;;;;;;;10.94;72.05;100714.22;5088877;28;20143;-65
2023/12/29 01:02:20;;;;;;;8.35;2.55;;;;;;;10.92;72.31;100700.59;5088323;28;20028;-65
2023/12/29 01:04:46;;;;;;;12.60;2.85;;;;;;;10.90;72.44;100702.78;5091431;28;20051;-65
2023/12/29 01:07:11;;;;;;;9.65;2.20;;;;;;;10.91;72.51;100698.91;5089975;28;20064;-65
2023/12/29 01:09:42;;;;;;;9.63;2.17;;;;;;;10.89;73.05;100703.91;5090265;28;20032;-65
2023/12/29 01:12:07;;;;;;;11.73;2.53;;;;;;;10.90;73.19;100700.03;5090985;28;20387;-66
2023/12/29 01:14:32;;;;;;;8.93;2.28;;;;;;;10.90;73.72;100697.25;5086840;28;20032;-65
2023/12/29 01:16:58;;;;;;;7.85;2.60;;;;;;;10.85;74.13;100705.53;5089815;28;20039;-65
2023/12/29 01:19:23;;;;;;;8.55;2.28;;;;;;;10.79;75.18;100712.09;5089466;28;20177;-65
2023/12/29 01:21:48;;;;;;;9.32;2.50;;;;;;;10.77;75.52;100712.34;5089982;28;20024;-65
2023/12/29 01:24:14;;;;;;;10.57;2.45;;;;;;;10.73;76.13;100719.53;5090522;28;20032;-65
2023/12/29 01:26:40;;;;;;;11.57;2.83;;;;;;;10.72;76.55;100709.50;5090570;28;20502;-66
2023/12/29 01:29:06;;;;;;;13.77;2.65;;;;;;;10.71;76.79;100715.31;5084888;28;20031;-65
2023/12/29 01:31:31;;;;;;;10.05;2.42;;;;;;;10.70;76.83;100702.53;5090925;28;20727;-65
2023/12/29 01:33:57;;;;;;;7.68;2.30;;;;;;;10.69;77.49;100693.38;5086786;28;20024;-66
2023/12/29 01:36:22;;;;;;;9.45;2.50;;;;;;;10.63;77.86;100708.28;5093134;28;20066;-65
2023/12/29 01:38:48;;;;;;;8.90;2.38;;;;;;;10.61;77.98;100704.94;5093765;28;20039;-66
2023/12/29 01:41:13;;;;;;;7.88;2.28;;;;;;;10.62;78.11;100700.22;5093824;28;20028;-65
2023/12/29 01:44:14;;;;;;;12.30;2.80;;;;;;;10.66;77.75;100684.72;5092337;28;20047;-65
2023/12/29 01:46:39;;;;;;;12.65;2.83;;;;;;;10.63;78.06;100680.53;5077385;28;20442;-65
2023/12/29 01:49:05;;;;;;;6.88;2.58;;;;;;;10.61;78.20;100692.97;5082366;28;20016;-65
2023/12/29 01:51:30;;;;;;;8.15;2.92;;;;;;;10.61;78.25;100679.09;5092598;28;20035;-65
2023/12/29 01:53:58;;;;;;;10.80;2.78;;;;;;;10.58;78.34;100683.25;5093301;28;20065;-65
2023/12/29 01:56:23;;;;;;;9.85;2.20;;;;;;;10.57;78.58;100693.50;5093155;28;20042;-66
2023/12/29 01:58:49;;;;;;;10.27;2.30;;;;;;;10.54;78.70;100688.47;5093048;28;20123;-65
2023/12/29 02:01:17;;;;;;;9.13;2.30;;;;;;;10.55;78.53;100692.91;5093144;28;20391;-65
2023/12/29 02:03:43;;;;;;;8.27;2.50;;;;;;;10.58;78.34;100683.25;5092095;28;20088;-66
2023/12/29 02:06:09;;;;;;;10.32;2.30;;;;;;;10.53;78.38;100678.47;5092525;28;20048;-65
2023/12/29 02:08:40;;;;;;;16.08;2.95;;;;;;;10.51;78.20;100680.66;5081864;28;20475;-66
2023/12/29 02:11:05;;;;;;;10.88;2.30;;;;;;;10.51;78.29;100686.19;5081903;28;20428;-65
2023/12/29 02:13:31;;;;;;;9.98;2.85;;;;;;;10.53;77.93;100688.69;5092839;28;20066;-66
2023/12/29 02:16:05;;;;;;;10.75;2.55;;;;;;;10.53;78.05;100689.56;5104307;28;20059;-66
2023/12/29 02:18:34;;;;;;;10.10;2.72;;;;;;;10.49;78.11;100693.94;5092184;28;20026;-65
2023/12/29 02:21:02;;;;;;;8.73;2.33;;;;;;;10.52;77.57;100701.75;5092508;28;20020;-65
2023/12/29 02:23:28;;;;;;;14.57;2.50;;;;;;;10.55;78.03;100700.41;5093118;28;20051;-65
2023/12/29 02:25:58;;;;;;;9.02;2.28;;;;;;;10.51;77.44;100688.97;5090143;28;20501;-65
2023/12/29 02:28:26;;;;;;;7.57;1.90;;;;;;;10.54;77.45;100698.72;5089602;28;20031;-65
2023/12/29 02:31:00;;;;;;;6.88;1.92;;;;;;;10.55;77.50;100692.06;5092003;28;20036;-65
2023/12/29 02:33:27;;;;;;;11.77;2.55;;;;;;;10.56;77.28;100683.47;5091958;28;20034;-65
2023/12/29 02:35:56;;;;;;;11.50;2.03;;;;;;;10.51;76.78;100675.09;5092127;28;20463;-65
2023/12/29 02:38:21;;;;;;;6.25;2.35;;;;;;;10.55;77.00;100678.19;5092426;28;20398;-65
2023/12/29 02:40:47;;;;;;;13.48;2.05;;;;;;;10.56;76.60;100679.88;5088628;28;20029;-65
2023/12/29 02:43:12;;;;;;;10.27;2.38;;;;;;;10.54;75.98;100682.91;5091183;28;20033;-66
2023/12/29 02:45:38;;;;;;;8.65;2.78;;;;;;;10.54;76.16;100682.91;5072968;28;20605;-66
2023/12/29 02:48:03;;;;;;;9.00;2.45;;;;;;;10.54;75.81;100677.34;5092684;28;20462;-66
2023/12/29 02:50:28;;;;;;;9.27;2.50;;;;;;;10.56;75.86;100672.38;5092766;28;20038;-65
2023/12/29 02:52:57;;;;;;;8.52;2.10;;;;;;;10.57;76.12;100687.94;5092481;28;20024;-65
2023/12/29 02:55:22;;;;;;;9.15;2.50;;;;;;;10.60;75.27;100694.06;5092591;28;20020;-66
2023/12/29 02:57:48;;;;;;;10.10;2.45;;;;;;;10.58;75.72;100686.00;5091244;28;20494;-65
2023/12/29 03:00:13;;;;;;;7.22;2.20;;;;;;;10.59;75.46;100681.28;5087947;28;20080;-66
2023/12/29 03:02:39;;;;;;;8.57;2.20;;;;;;;10.58;75.29;100686.00;5092865;28;20173;-65
2023/12/29 03:05:04;;;;;;;10.13;2.50;;;;;;;10.57;75.72;100682.41;5092198;28;20044;-65
2023/12/29 03:07:29;;;;;;;11.68;2.60;;;;;;;10.59;75.42;100687.69;5090339;28;20080;-66
2023/12/29 03:09:55;;;;;;;8.35;1.95;;;;;;;10.60;75.49;100666.31;5092271;28;20027;-66
2023/12/29 03:12:20;;;;;;;9.27;2.63;;;;;;;10.57;74.79;100673.22;5091515;28;20028;-65
2023/12/29 03:14:47;;;;;;;12.10;3.17;;;;;;;10.59;75.04;100670.19;5091317;28;20028;-66
2023/12/29 03:17:12;;;;;;;8.52;2.47;;;;;;;10.60;75.09;100669.09;5089055;28;20028;-65
2023/12/29 03:19:38;;;;;;;10.95;2.35;;;;;;;10.62;74.94;100672.47;5079914;28;20086;-65
2023/12/29 03:22:03;;;;;;;11.05;2.15;;;;;;;10.66;74.60;100681.94;5076989;28;20028;-65
2023/12/29 03:24:29;;;;;;;11.60;2.20;;;;;;;10.61;73.91;100677.19;5091952;28;20107;-65
2023/12/29 03:26:55;;;;;;;11.77;2.90;;;;;;;10.60;73.71;100680.19;5089388;28;20042;-65
2023/12/29 03:29:20;;;;;;;12.10;2.78;;;;;;;10.57;73.70;100670.44;5090790;28;20114;-65
2023/12/29 03:31:45;;;;;;;16.10;2.92;;;;;;;10.60;73.63;100685.75;5091771;28;20387;-65
2023/12/29 03:34:10;;;;;;;9.30;2.67;;;;;;;10.61;73.99;100676.31;5090130;28;20468;-65
2023/12/29 03:36:36;;;;;;;9.02;2.20;;;;;;;10.63;73.94;100674.97;5099395;28;20085;-65
2023/12/29 03:39:02;;;;;;;8.98;2.30;;;;;;;10.65;73.68;100675.56;5090190;28;20032;-65
2023/12/29 03:41:27;;;;;;;12.00;2.63;;;;;;;10.65;73.42;100675.56;5086216;28;20082;-65
2023/12/29 03:43:53;;;;;;;10.05;2.42;;;;;;;10.64;73.47;100681.34;5091435;28;20031;-65
2023/12/29 03:46:22;;;;;;;12.15;2.30;;;;;;;10.61;73.43;100663.31;5091321;28;20028;-65
2023/12/29 03:48:50;;;;;;;8.68;2.20;;;;;;;10.61;73.41;100662.44;5090053;28;20111;-65
2023/12/29 03:51:16;;;;;;;13.02;2.67;;;;;;;10.63;73.51;100668.59;5099783;28;20118;-65
2023/12/29 03:53:42;;;;;;;11.38;2.30;;;;;;;10.62;73.47;100667.75;5096307;28;20032;-65
2023/12/29 03:56:18;;;;;;;10.02;2.65;;;;;;;10.67;73.46;100667.81;5090559;28;20782;-66
2023/12/29 03:58:47;;;;;;;8.60;2.10;;;;;;;10.67;73.33;100678.91;5090889;28;20036;-65
2023/12/29 04:01:13;;;;;;;11.60;2.85;;;;;;;10.66;73.21;100673.63;5085459;28;20093;-66
2023/12/29 04:03:39;;;;;;;12.20;3.03;;;;;;;10.64;72.36;100675.81;5090139;28;20217;-65
2023/12/29 04:06:06;;;;;;;8.43;2.20;;;;;;;10.63;72.97;100661.09;5104816;28;20142;-65
2023/12/29 04:08:31;;;;;;;10.55;2.60;;;;;;;10.66;72.72;100668.06;5091510;28;20032;-65
2023/12/29 04:10:56;;;;;;;8.38;2.35;;;;;;;10.66;72.89;100670.84;5090265;28;20822;-65
2023/12/29 04:13:22;;;;;;;11.48;2.38;;;;;;;10.69;72.99;100667.53;5090583;28;20035;-65
2023/12/29 04:15:47;;;;;;;13.90;3.15;;;;;;;10.68;72.56;100668.63;5090914;28;20107;-65
2023/12/29 04:18:12;;;;;;;13.05;2.42;;;;;;;10.66;72.73;100666.13;5090306;28;20051;-65
2023/12/29 04:20:38;;;;;;;7.65;2.08;;;;;;;10.67;72.51;100672.53;5087359;28;20044;-65
2023/12/29 04:23:07;;;;;;;12.23;2.75;;;;;;;10.66;72.53;100668.91;5091217;28;20206;-65
2023/12/29 04:25:33;;;;;;;10.60;2.80;;;;;;;10.66;72.38;100668.06;5090554;28;20028;-65
2023/12/29 04:27:58;;;;;;;11.13;2.70;;;;;;;10.65;72.34;100666.38;5090263;28;20517;-65
2023/12/29 04:30:24;;;;;;;10.57;2.35;;;;;;;10.63;72.17;100672.19;5091236;28;20111;-65
2023/12/29 04:32:51;;;;;;;7.80;2.30;;;;;;;10.60;71.97;100644.94;5089878;28;20467;-65
2023/12/29 04:35:17;;;;;;;11.35;2.33;;;;;;;10.60;72.47;100658.81;5096660;28;20501;-65
2023/12/29 04:37:44;;;;;;;13.05;2.33;;;;;;;10.60;72.21;100667.16;5079613;28;20044;-65
2023/12/29 04:40:11;;;;;;;9.68;2.33;;;;;;;10.64;72.16;100659.16;5078031;28;20028;-65
2023/12/29 04:42:36;;;;;;;10.43;2.50;;;;;;;10.65;71.82;100663.59;5095783;28;20128;-65
2023/12/29 04:45:02;;;;;;;14.35;2.85;;;;;;;10.61;71.92;100657.75;5076944;28;20143;-65
2023/12/29 04:47:28;;;;;;;11.68;2.60;;;;;;;10.63;71.72;100658.31;5070720;28;20064;-65
2023/12/29 04:49:55;;;;;;;11.45;3.00;;;;;;;10.57;71.71;100668.53;5073300;28;20068;-64
2023/12/29 04:52:21;;;;;;;12.55;2.95;;;;;;;10.60;71.78;100650.50;5086664;28;20020;-65
2023/12/29 04:54:46;;;;;;;10.10;2.17;;;;;;;10.60;71.63;100650.50;5076353;28;20130;-65
2023/12/29 04:57:11;;;;;;;14.10;3.20;;;;;;;10.55;71.64;100642.94;5081660;28;20434;-65
2023/12/29 04:59:37;;;;;;;13.32;2.72;;;;;;;10.56;71.74;100658.50;5076927;28;20058;-65
2023/12/29 05:02:02;;;;;;;9.75;2.75;;;;;;;10.60;71.21;100658.81;5076718;28;20031;-65
2023/12/29 05:04:27;;;;;;;15.20;2.90;;;;;;;10.59;71.65;100664.66;5078032;28;20039;-65
2023/12/29 05:06:53;;;;;;;13.05;3.00;;;;;;;10.58;71.40;100663.81;5086097;28;20056;-65
2023/12/29 05:09:18;;;;;;;13.60;3.25;;;;;;;10.58;71.80;100674.91;5099322;28;20464;-64
2023/12/29 05:11:43;;;;;;;11.73;3.00;;;;;;;10.59;71.77;100675.75;5075761;28;20021;-64
2023/12/29 05:14:08;;;;;;;14.27;2.80;;;;;;;10.57;71.64;100676.84;5073502;28;20407;-64
2023/12/29 05:16:35;;;;;;;12.27;2.75;;;;;;;10.58;71.70;100661.03;5089576;28;20036;-65
2023/12/29 05:19:00;;;;;;;13.43;2.67;;;;;;;10.54;71.64;100665.44;5077024;28;20136;-65
2023/12/29 05:21:26;;;;;;;9.40;2.50;;;;;;;10.57;71.92;100668.53;5083030;28;20118;-64
2023/12/29 05:23:52;;;;;;;10.65;2.90;;;;;;;10.54;72.08;100665.44;5089756;28;20023;-65
2023/12/29 05:26:17;;;;;;;8.77;2.00;;;;;;;10.59;72.16;100675.75;5081580;28;20028;-65
2023/12/29 05:28:43;;;;;;;14.98;2.72;;;;;;;10.59;72.18;100668.25;5079277;28;20475;-64
2023/12/29 05:31:08;;;;;;;9.25;2.65;;;;;;;10.59;72.41;100661.88;5091267;28;20031;-64
2023/12/29 05:33:34;;;;;;;12.45;2.28;;;;;;;10.57;72.26;100662.97;5087246;28;20036;-65
2023/12/29 05:36:07;;;;;;;12.82;3.22;;;;;;;10.53;72.53;100656.25;5094772;28;20114;-64
2023/12/29 05:38:36;;;;;;;15.02;3.17;;;;;;;10.55;72.22;100644.91;5099478;28;20027;-65
2023/12/29 05:41:04;;;;;;;9.68;2.53;;;;;;;10.54;72.58;100648.78;5092741;28;20032;-65
2023/12/29 05:43:31;;;;;;;13.13;2.92;;;;;;;10.56;72.35;100652.94;5079629;28;20024;-64
2023/12/29 05:45:57;;;;;;;13.27;2.45;;;;;;;10.55;72.34;100645.72;5076684;28;20093;-64
2023/12/29 05:48:23;;;;;;;11.82;2.33;;;;;;;10.54;72.54;100649.59;5081897;28;20036;-65
2023/12/29 05:50:49;;;;;;;10.25;2.60;;;;;;;10.50;72.35;100656.78;5092801;28;20031;-65
2023/12/29 05:53:15;;;;;;;10.93;2.80;;;;;;;10.49;72.91;100655.09;5087539;28;20050;-64
2023/12/29 05:55:40;;;;;;;12.50;2.92;;;;;;;10.53;73.01;100653.50;5077771;28;20024;-64
2023/12/29 05:58:06;;;;;;;10.02;2.58;;;;;;;10.52;72.77;100650.94;5104446;28;20028;-65
2023/12/29 06:00:31;;;;;;;11.05;2.60;;;;;;;10.51;72.96;100632.63;5079751;28;20024;-64
2023/12/29 06:02:56;;;;;;;10.52;2.50;;;;;;;10.52;73.06;100646.22;5086272;28;20082;-65
2023/12/29 06:05:22;;;;;;;12.02;2.80;;;;;;;10.47;73.22;100639.78;5100390;28;20090;-65
2023/12/29 06:07:47;;;;;;;16.08;3.20;;;;;;;10.51;73.86;100638.19;5071750;28;20028;-65
2023/12/29 06:10:12;;;;;;;9.23;2.40;;;;;;;10.53;74.31;100647.94;5095179;28;20024;-65
2023/12/29 06:12:38;;;;;;;7.60;2.45;;;;;;;10.54;74.49;100648.78;5081875;28;20115;-64
2023/12/29 06:15:03;;;;;;;10.63;2.53;;;;;;;10.51;74.48;100655.66;5073272;28;20024;-65
2023/12/29 06:17:29;;;;;;;9.40;2.90;;;;;;;10.48;74.55;100655.34;5092952;28;20051;-64
2023/12/29 06:19:54;;;;;;;10.27;2.30;;;;;;;10.53;74.49;100645.16;5093903;28;20135;-64
2023/12/29 06:22:19;;;;;;;8.90;2.50;;;;;;;10.52;74.34;100640.69;5090976;28;20024;-64
2023/12/29 06:24:45;;;;;;;8.05;2.30;;;;;;;10.51;74.45;100635.41;5079681;28;20028;-64
2023/12/29 06:27:11;;;;;;;9.13;2.20;;;;;;;10.50;74.49;100645.66;5078254;28;20024;-64
2023/12/29 06:29:37;;;;;;;9.93;2.50;;;;;;;10.50;74.61;100648.44;5078922;28;20078;-64
2023/12/29 06:32:03;;;;;;;12.02;2.40;;;;;;;10.51;74.45;100644.56;5083837;28;20024;-64
2023/12/29 06:34:29;;;;;;;8.75;2.45;;;;;;;10.48;74.42;100653.41;5084192;28;20050;-64
2023/12/29 06:36:54;;;;;;;11.00;2.67;;;;;;;10.49;74.73;100649.56;5101667;28;20110;-64
2023/12/29 06:39:20;;;;;;;13.38;2.65;;;;;;;10.51;74.69;100655.66;5109555;28;20080;-64
2023/12/29 06:41:45;;;;;;;10.55;2.13;;;;;;;10.48;74.98;100647.84;5102236;28;20038;-64
2023/12/29 06:44:10;;;;;;;7.97;2.40;;;;;;;10.46;75.12;100663.09;5085072;28;20031;-64
2023/12/29 06:46:39;;;;;;;12.00;2.30;;;;;;;10.46;75.02;100657.56;5089952;28;20028;-64
2023/12/29 06:49:06;;;;;;;10.45;2.28;;;;;;;10.48;75.38;100653.41;5111277;28;20050;-64
2023/12/29 06:51:31;;;;;;;10.18;2.60;;;;;;;10.48;75.13;100652.56;5095131;28;20406;-64
2023/12/29 06:53:57;;;;;;;10.60;2.10;;;;;;;10.52;74.74;100637.06;5071524;28;20032;-64
2023/12/29 06:56:22;;;;;;;7.72;2.33;;;;;;;10.48;75.32;100647.84;5080995;28;20394;-64
2023/12/29 06:58:48;;;;;;;12.68;2.72;;;;;;;10.48;75.46;100645.06;5101598;28;20023;-64
2023/12/29 07:01:13;;;;;;;10.73;2.70;;;;;;;10.50;75.38;100645.66;5085116;28;20067;-64
2023/12/29 07:03:41;;;;;;;9.95;2.53;;;;;;;10.47;75.69;100632.31;5077860;28;20115;-64
2023/12/29 07:06:07;;;;;;;6.93;1.98;;;;;;;10.43;75.81;100631.16;5080339;28;20139;-64
2023/12/29 07:08:32;;;;;;;9.55;1.98;;;;;;;10.45;75.93;100630.88;5072634;28;20429;-64
2023/12/29 07:10:58;;;;;;;10.95;2.42;;;;;;;10.47;76.00;100625.91;5097186;28;20502;-65
2023/12/29 07:13:23;;;;;;;9.43;2.20;;;;;;;10.48;75.98;100624.81;5090254;28;20538;-65
2023/12/29 07:15:49;;;;;;;5.07;1.73;;;;;;;10.48;76.40;100624.81;5092457;28;20026;-64
2023/12/29 07:18:14;;;;;;;9.98;2.65;;;;;;;10.47;76.69;100625.91;5110165;28;20486;-64
2023/12/29 07:20:40;;;;;;;12.10;2.65;;;;;;;10.43;77.13;100622.81;5094331;28;20111;-64
2023/12/29 07:23:06;;;;;;;8.75;2.10;;;;;;;10.42;77.38;100626.69;5101565;28;20032;-63
2023/12/29 07:25:31;;;;;;;7.57;2.42;;;;;;;10.45;77.29;100622.56;5106024;28;20031;-64
2023/12/29 07:27:56;;;;;;;9.95;2.22;;;;;;;10.48;77.27;100631.19;5102365;28;20055;-63
2023/12/29 07:30:22;;;;;;;7.75;2.42;;;;;;;10.48;76.86;100622.88;5101739;28;20043;-64
2023/12/29 07:32:47;;;;;;;13.70;2.58;;;;;;;10.49;77.13;100601.50;5110114;28;20801;-64
2023/12/29 07:35:17;;;;;;;10.88;2.47;;;;;;;10.47;77.19;100618.44;5102620;28;20102;-65
2023/12/29 07:37:43;;;;;;;8.30;2.22;;;;;;;10.47;76.61;100603.72;5106808;28;20023;-65
2023/12/29 07:40:11;;;;;;;8.77;2.10;;;;;;;10.46;76.87;100619.53;5086203;28;20042;-65
2023/12/29 07:42:36;;;;;;;6.32;2.28;;;;;;;10.50;76.92;100604.03;5077457;28;20540;-65
2023/12/29 07:45:01;;;;;;;8.38;2.33;;;;;;;10.47;76.89;100607.34;5084839;28;20107;-65
2023/12/29 07:47:27;;;;;;;7.15;2.10;;;;;;;10.47;77.03;100612.88;5091680;28;20024;-65
2023/12/29 07:49:52;;;;;;;7.82;2.00;;;;;;;10.49;77.04;100607.94;5083617;28;20027;-65
2023/12/29 07:52:17;;;;;;;9.38;2.20;;;;;;;10.47;77.18;100635.09;5097364;28;20020;-65
2023/12/29 07:54:43;;;;;;;4.25;1.60;;;;;;;10.46;77.66;100643.69;5103512;28;20862;-64
2023/12/29 07:57:08;;;;;;;6.18;1.85;;;;;;;10.48;77.73;100650.63;5090931;28;20043;-65
2023/12/29 07:59:33;;;;;;;4.85;1.63;;;;;;;10.50;77.46;100661.50;5094119;28;20189;-64
2023/12/29 08:01:59;;;;;;;7.75;2.78;;;;;;;10.49;77.65;100660.66;5086499;28;20032;-65
2023/12/29 08:04:24;;;;;;;5.72;2.00;;;;;;;10.49;77.62;100668.09;5095526;28;20113;-64
2023/12/29 08:06:49;;;;;;;6.03;1.88;;;;;;;10.46;77.91;100650.06;5096336;28;20048;-64
2023/12/29 08:09:14;;;;;;;7.88;1.65;;;;;;;10.43;77.72;100658.06;5087556;28;20028;-63
2023/12/29 08:11:42;;;;;;;7.80;2.03;;;;;;;10.42;77.95;100654.44;5096046;28;20478;-64
2023/12/29 08:14:08;;;;;;;5.65;1.52;;;;;;;10.42;77.91;100640.56;5087858;28;20114;-64
2023/12/29 08:16:39;;;;;;;5.18;1.35;;;;;;;10.41;77.94;100651.91;5104648;28;20020;-63
2023/12/29 08:19:04;;;;;;;4.13;1.60;;;;;;;10.43;77.97;100647.78;5089100;28;20024;-64
2023/12/29 08:21:29;;;;;;;7.07;2.13;;;;;;;10.42;78.08;100648.91;5094479;28;20047;-63
2023/12/29 08:23:54;;;;;;;4.95;1.40;;;;;;;10.47;78.30;100651.72;5108710;28;20023;-63
2023/12/29 08:26:20;;;;;;;3.78;1.55;;;;;;;10.46;77.83;100647.28;5111567;28;20031;-63
2023/12/29 08:28:45;;;;;;;5.88;1.60;;;;;;;10.50;78.06;100653.16;5110651;28;20429;-63
2023/12/29 08:31:10;;;;;;;5.35;1.90;;;;;;;10.49;77.73;100654.22;5103838;28;20012;-63
2023/12/29 08:33:39;;;;;;;5.47;1.65;;;;;;;10.49;77.67;100652.31;5107913;28;20440;-63
2023/12/29 08:36:04;;;;;;;6.00;1.60;;;;;;;10.47;77.40;100657.28;5081115;28;20434;-64
2023/12/29 08:38:33;;;;;;;6.40;1.80;;;;;;;10.48;77.55;100660.88;5089857;28;20024;-63
2023/12/29 08:40:59;;;;;;;5.75;1.63;;;;;;;10.44;77.49;100665.28;5101735;28;20057;-63
2023/12/29 08:43:24;;;;;;;4.07;1.52;;;;;;;10.48;77.63;100666.44;5103503;28;20451;-63
2023/12/29 08:45:50;;;;;;;5.60;1.83;;;;;;;10.48;77.40;100672.81;5095631;28;20107;-64
2023/12/29 08:48:16;;;;;;;6.18;1.50;;;;;;;10.47;77.64;100681.41;5098660;28;20032;-65
2023/12/29 08:50:42;;;;;;;3.67;1.40;;;;;;;10.49;77.99;100687.53;5093041;28;20345;-65
2023/12/29 08:53:08;;;;;;;4.45;1.70;;;;;;;10.51;78.40;100688.13;5104334;28;20414;-65
2023/12/29 08:55:33;;;;;;;3.60;1.60;;;;;;;10.54;78.28;100688.47;5102276;28;20036;-64
2023/12/29 08:57:59;;;;;;;5.28;1.60;;;;;;;10.54;78.30;100687.63;5096003;28;20080;-64
2023/12/29 09:00:24;;;;;;;4.13;1.60;;;;;;;10.54;78.38;100677.34;5097148;28;20062;-65
2023/12/29 09:02:49;;;;;;;6.28;1.73;;;;;;;10.51;79.00;100683.41;5104686;28;20107;-65
2023/12/29 09:05:15;;;;;;;4.38;1.45;;;;;;;10.53;78.63;100697.88;5095688;27;20036;-64
2023/12/29 09:07:45;;;;;;;3.40;1.48;;;;;;;10.54;78.71;100682.06;5098413;28;20046;-65
2023/12/29 09:10:12;;;;;;;3.72;1.45;;;;;;;10.55;78.75;100672.66;5105878;28;20030;-65
2023/12/29 09:12:38;;;;;;;4.03;1.35;;;;;;;10.56;79.41;100674.31;5094100;28;20067;-68
2023/12/29 09:15:05;;;;;;;3.45;1.13;;;;;;;10.53;79.69;100672.91;5087188;28;20081;-66
2023/12/29 09:17:30;;;;;;;3.28;1.20;;;;;;;10.55;79.44;100678.19;5103722;28;20042;-64
2023/12/29 09:19:55;;;;;;;3.17;1.13;;;;;;;10.56;79.44;100686.25;5105887;28;20493;-63
2023/12/29 09:22:21;;;;;;;4.03;1.40;;;;;;;10.59;79.68;100681.28;5098469;28;20040;-64
2023/12/29 09:24:49;;;;;;;3.65;1.35;;;;;;;10.57;79.75;100687.09;5110645;28;20103;-64
2023/12/29 09:27:14;;;;;;;3.75;1.35;;;;;;;10.55;79.64;100690.13;5096536;28;20496;-64
2023/12/29 09:29:40;;;;;;;3.97;1.25;;;;;;;10.50;80.17;100686.47;5107172;28;20024;-65
2023/12/29 09:32:12;;;;;;;2.78;1.20;;;;;;;10.54;80.15;100688.47;5095520;28;20035;-63
2023/12/29 09:34:37;;;;;;;4.63;1.40;;;;;;;10.55;80.11;100686.53;5095243;28;20024;-66
2023/12/29 09:37:02;;;;;;;4.47;1.92;;;;;;;10.53;80.07;100697.03;5096541;28;20028;-65
2023/12/29 09:39:28;;;;;;;4.10;1.65;;;;;;;10.55;80.17;100698.47;5073722;28;20025;-66
2023/12/29 09:42:00;;;;;;;3.95;1.88;;;;;;;10.54;80.49;100694.00;5088460;28;20029;-65
2023/12/29 09:44:28;;;;;;;3.50;1.50;;;;;;;10.52;80.32;100693.41;5088329;28;20065;-66
2023/12/29 09:46:55;;;;;;;2.03;1.30;;;;;;;10.53;80.34;100680.38;5089412;28;20032;-65
2023/12/29 09:49:24;;;;;;;2.20;1.30;;;;;;;10.55;80.21;100700.41;5100681;28;20042;-65
2023/12/29 09:51:50;;;;;;;3.50;1.63;;;;;;;10.58;80.01;100688.78;5095773;28;20028;-64
2023/12/29 09:54:15;;;;;;;2.03;1.58;;;;;;;10.59;80.01;100703.50;5102805;28;20032;-65
2023/12/29 09:56:41;;;;;;;3.67;1.48;;;;;;;10.60;79.58;100694.06;5095411;28;20824;-67
2023/12/29 09:59:09;;;;;;;3.35;1.42;;;;;;;10.55;79.15;100689.28;5090178;28;20024;-68
2023/12/29 10:01:37;;;;;;;2.95;1.48;;;;;;;10.54;79.49;100690.41;5102144;28;20040;-66
2023/12/29 10:04:02;;;;;;;4.22;1.63;;;;;;;10.53;79.85;100694.25;5091349;28;20780;-66
2023/12/29 10:06:34;;;;;;;4.00;1.92;;;;;;;10.54;79.12;100688.47;5082214;28;20090;-66
2023/12/29 10:09:04;;;;;;;3.00;1.35;;;;;;;10.57;79.06;100689.88;5092382;28;20052;-66
2023/12/29 10:11:35;;;;;;;2.50;1.20;;;;;;;10.61;78.59;100688.28;5106869;28;20360;-66
2023/12/29 10:14:08;;;;;;;1.20;1.10;;;;;;;10.63;78.54;100691.63;5112990;28;20479;-66
2023/12/29 10:16:44;;;;;;;2.00;1.52;;;;;;;10.69;78.42;100695.28;5093781;28;20041;-66
2023/12/29 10:19:42;;;;;;;2.00;1.20;;;;;;;10.69;77.95;100706.41;5072937;28;20029;-66
2023/12/29 10:22:30;;;;;;;1.83;1.30;;;;;;;10.65;77.20;100697.78;5072927;28;20033;-66
2023/12/29 10:24:56;;;;;;;1.98;1.35;;;;;;;10.65;77.21;100703.31;5075134;28;20035;-66
2023/12/29 10:27:22;;;;;;;1.83;1.27;;;;;;;10.68;76.97;100707.50;5092673;28;20036;-66
2023/12/29 10:29:48;;;;;;;3.00;1.45;;;;;;;10.69;76.76;100698.06;5088985;28;20032;-66
2023/12/29 10:32:13;;;;;;;3.28;1.63;;;;;;;10.72;76.81;100712.28;5092050;28;20039;-59
2023/12/29 10:34:38;;;;;;;2.28;1.55;;;;;;;10.75;76.56;100717.31;5099252;28;20573;-65
2023/12/29 10:37:08;;;;;;;3.58;1.70;;;;;;;10.77;76.40;100723.47;5101084;28;20031;-66
2023/12/29 10:39:37;;;;;;;4.95;1.65;;;;;;;10.80;76.25;100731.25;5108382;28;20032;-66
2023/12/29 10:42:07;;;;;;;3.58;1.42;;;;;;;10.78;75.96;100727.06;5105117;28;20024;-67
2023/12/29 10:44:36;;;;;;;5.35;1.33;;;;;;;10.77;76.18;100728.19;5076716;28;20428;-68
2023/12/29 10:47:12;;;;;;;4.40;1.63;;;;;;;10.77;76.55;100729.03;5076664;28;20043;-66
2023/12/29 10:49:39;;;;;;;3.65;1.60;;;;;;;10.79;76.46;100728.75;5100900;28;20387;-65
2023/12/29 10:52:14;;;;;;;5.05;1.42;;;;;;;10.81;76.62;100746.84;5094619;28;20027;-68
2023/12/29 10:54:40;;;;;;;4.05;1.73;;;;;;;10.80;76.71;100741.53;5076620;28;20047;-68
2023/12/29 10:57:09;;;;;;;5.45;1.80;;;;;;;10.78;76.66;100736.25;5101417;28;20089;-69
2023/12/29 10:59:35;;;;;;;5.68;2.05;;;;;;;10.80;76.67;100727.66;5091780;28;20664;-67
2023/12/29 11:02:01;;;;;;;5.05;2.10;;;;;;;10.84;76.49;100723.25;5085768;28;20123;-67
2023/12/29 11:04:26;;;;;;;6.45;1.85;;;;;;;10.81;76.50;100732.13;5085815;28;20055;-67
2023/12/29 11:06:51;;;;;;;4.68;1.73;;;;;;;10.81;76.92;100713.53;5071178;28;20136;-68
2023/12/29 11:09:30;;;;;;;9.25;2.00;;;;;;;10.82;76.93;100715.19;5090875;28;20032;-67
2023/12/29 11:12:05;;;;;;;6.07;1.90;;;;;;;10.86;76.84;100721.06;5092538;28;20191;-67
2023/12/29 11:14:32;;;;;;;8.93;2.53;;;;;;;10.84;76.80;100730.75;5109474;28;20040;-67
2023/12/29 11:17:00;;;;;;;10.63;2.33;;;;;;;10.83;76.88;100724.34;5111549;28;20126;-68
2023/12/29 11:19:26;;;;;;;7.32;2.30;;;;;;;10.85;76.71;100721.34;5099899;28;20028;-67